createdAt,value
2022-08-25T00:02:06.553Z,89.27
2022-08-25T00:04:38.139Z,88.97
2022-08-25T00:07:07.493Z,88.17
2022-08-25T00:09:35.506Z,88.78
2022-08-25T00:12:04.702Z,88.42
2022-08-25T00:14:37.211Z,89.28
2022-08-25T00:17:07.015Z,89.43
2022-08-25T00:19:38.553Z,88.98
2022-08-25T00:22:07.905Z,88.59
2022-08-25T00:24:35.488Z,88.29
2022-08-25T00:27:02.813Z,88.78
2022-08-25T00:29:32.377Z,88.72
2022-08-25T00:32:01.014Z,88.57
2022-08-25T00:34:35.080Z,89.76
2022-08-25T00:37:07.246Z,89.90
2022-08-25T00:39:34.997Z,89.44
2022-08-25T00:42:06.198Z,88.77
2022-08-25T00:44:40.054Z,89.05
2022-08-25T00:47:09.851Z,88.70
2022-08-25T00:49:49.404Z,87.89
2022-08-25T00:52:38.463Z,87.53
2022-08-25T00:55:21.715Z,88.88
2022-08-25T00:58:19.714Z,89.65
2022-08-25T01:00:52.975Z,89.45
2022-08-25T01:03:23.821Z,90.31
2022-08-25T01:05:55.262Z,89.28
2022-08-25T01:08:28.958Z,89.68
2022-08-25T01:10:59.406Z,90.25
2022-08-25T01:13:47.488Z,90.91
2022-08-25T01:16:16.713Z,90.50
2022-08-25T01:18:53.071Z,89.48
2022-08-25T01:21:23.329Z,90.32
2022-08-25T01:23:55.549Z,89.24
2022-08-25T01:26:31.061Z,89.94
2022-08-25T01:29:21.004Z,89.80
2022-08-25T01:32:08.891Z,89.38
2022-08-25T01:34:42.308Z,90.40
2022-08-25T01:37:14.548Z,90.22
2022-08-25T01:39:43.522Z,89.11
2022-08-25T01:42:54.027Z,89.77
2022-08-25T01:45:21.645Z,89.34
2022-08-25T01:47:49.535Z,89.41
2022-08-25T01:50:16.786Z,89.53
2022-08-25T01:52:59.914Z,89.80
2022-08-25T01:55:27.239Z,89.92
2022-08-25T01:57:54.370Z,89.20
2022-08-25T02:00:22.881Z,89.96
2022-08-25T02:02:52.259Z,90.09
2022-08-25T02:05:23.809Z,91.17
2022-08-25T02:07:51.045Z,90.95
2022-08-25T02:10:18.771Z,89.92
2022-08-25T02:12:45.962Z,89.77
2022-08-25T02:15:14.163Z,90.76
2022-08-25T02:17:41.156Z,89.63
2022-08-25T02:20:09.692Z,90.08
2022-08-25T02:22:36.917Z,89.46
2022-08-25T02:25:06.299Z,89.63
2022-08-25T02:27:33.716Z,90.53
2022-08-25T02:30:00.815Z,90.50
2022-08-25T02:32:27.986Z,90.25
2022-08-25T02:34:55.114Z,89.97
2022-08-25T02:37:22.235Z,90.19
2022-08-25T02:39:50.197Z,90.56
2022-08-25T02:42:17.253Z,90.57
2022-08-25T02:44:44.221Z,90.17
2022-08-25T02:47:11.230Z,89.87
2022-08-25T02:49:38.274Z,90.62
2022-08-25T02:52:05.546Z,89.96
2022-08-25T02:54:32.522Z,90.59
2022-08-25T02:56:59.881Z,90.09
2022-08-25T02:59:27.353Z,90.45
2022-08-25T03:01:54.613Z,91.90
2022-08-25T03:04:21.872Z,91.48
2022-08-25T03:06:49.264Z,91.35
2022-08-25T03:09:16.947Z,91.49
2022-08-25T03:11:44.071Z,91.53
2022-08-25T03:14:11.430Z,91.98
2022-08-25T03:16:38.815Z,91.25
2022-08-25T03:19:06.403Z,92.25
2022-08-25T03:21:33.995Z,92.24
2022-08-25T03:24:01.331Z,93.36
2022-08-25T03:26:50.826Z,92.47
2022-08-25T03:29:18.678Z,92.38
2022-08-25T03:31:48.967Z,93.14
2022-08-25T03:34:18.991Z,93.04
2022-08-25T03:36:52.502Z,92.04
2022-08-25T03:39:23.376Z,92.12
2022-08-25T03:41:51.716Z,91.98
2022-08-25T03:44:23.930Z,93.46
2022-08-25T03:46:53.134Z,93.22
2022-08-25T03:49:24.214Z,93.66
2022-08-25T03:51:54.977Z,92.74
2022-08-25T03:54:25.949Z,92.87
2022-08-25T03:56:53.995Z,93.55
2022-08-25T03:59:21.583Z,93.13
2022-08-25T04:01:54.549Z,93.07
2022-08-25T04:04:23.017Z,93.34
2022-08-25T04:06:50.278Z,92.71
2022-08-25T04:09:17.256Z,92.49
2022-08-25T04:11:44.489Z,92.78
2022-08-25T04:14:15.921Z,93.32
2022-08-25T04:16:47.781Z,93.57
2022-08-25T04:19:15.098Z,93.92
2022-08-25T04:21:42.498Z,93.89
2022-08-25T04:24:12.825Z,93.92
2022-08-25T04:26:49.130Z,93.96
2022-08-25T04:29:23.760Z,93.96
2022-08-25T04:31:53.439Z,95.01
2022-08-25T04:34:30.130Z,95.37
2022-08-25T04:37:02.821Z,94.59
2022-08-25T04:39:31.192Z,95.08
2022-08-25T04:42:00.441Z,94.89
2022-08-25T04:44:28.500Z,94.70
2022-08-25T04:46:55.504Z,94.48
2022-08-25T04:49:24.050Z,94.37
2022-08-25T04:51:51.346Z,94.21
2022-08-25T04:54:21.941Z,94.09
2022-08-25T04:56:54.671Z,94.74
2022-08-25T04:59:30.152Z,94.01
2022-08-25T05:02:03.540Z,94.60
2022-08-25T05:04:33.393Z,94.29
2022-08-25T05:07:01.059Z,94.83
2022-08-25T05:09:28.526Z,94.36
2022-08-25T05:11:59.860Z,95.15
2022-08-25T05:14:26.937Z,95.10
2022-08-25T05:16:55.714Z,95.00
2022-08-25T05:19:24.426Z,94.69
2022-08-25T05:21:52.126Z,94.10
2022-08-25T05:24:20.479Z,94.93
2022-08-25T05:26:47.869Z,94.78
2022-08-25T05:29:15.643Z,94.68
2022-08-25T05:31:48.247Z,94.91
2022-08-25T05:34:18.744Z,94.95
2022-08-25T05:36:46.167Z,94.81
2022-08-25T05:39:13.482Z,94.65
2022-08-25T05:41:40.746Z,95.26
2022-08-25T05:44:08.456Z,94.89
2022-08-25T05:46:36.554Z,94.86
2022-08-25T05:49:03.923Z,95.09
2022-08-25T05:51:31.079Z,94.68
2022-08-25T05:54:00.663Z,94.94
2022-08-25T05:56:27.651Z,94.43
2022-08-25T05:58:54.641Z,94.22
2022-08-25T06:01:46.176Z,94.23
2022-08-25T06:04:18.057Z,94.33
2022-08-25T06:06:45.252Z,93.65
2022-08-25T06:09:12.534Z,94.09
2022-08-25T06:11:41.429Z,95.21
2022-08-25T06:14:10.465Z,94.32
2022-08-25T06:16:39.133Z,94.18
2022-08-25T06:19:09.639Z,93.48
2022-08-25T06:21:41.363Z,94.08
2022-08-25T06:24:15.266Z,93.50
2022-08-25T06:26:44.005Z,94.06
2022-08-25T06:29:11.177Z,94.44
2022-08-25T06:31:38.338Z,94.13
2022-08-25T06:34:06.197Z,94.58
2022-08-25T06:36:34.600Z,93.93
2022-08-25T06:39:01.698Z,93.39
2022-08-25T06:41:36.797Z,93.67
2022-08-25T06:44:05.910Z,94.07
2022-08-25T06:46:35.937Z,92.59
2022-08-25T06:49:06.948Z,93.37
2022-08-25T06:51:35.969Z,93.88
2022-08-25T06:54:06.972Z,93.53
2022-08-25T06:56:34.678Z,92.72
2022-08-25T06:59:04.618Z,92.33
2022-08-25T07:01:32.344Z,93.15
2022-08-25T07:04:02.984Z,92.93
2022-08-25T07:06:35.405Z,92.96
2022-08-25T07:09:08.536Z,92.29
2022-08-25T07:11:35.897Z,92.86
2022-08-25T07:14:06.129Z,92.15
2022-08-25T07:16:33.732Z,91.85
2022-08-25T07:19:03.597Z,91.26
2022-08-25T07:21:35.732Z,90.71
2022-08-25T07:24:11.088Z,91.31
2022-08-25T07:26:42.392Z,90.97
2022-08-25T07:29:32.854Z,90.10
2022-08-25T07:32:02.026Z,90.25
2022-08-25T07:34:52.274Z,90.71
2022-08-25T07:40:15.293Z,90.29
2022-08-25T07:42:42.762Z,91.48
2022-08-25T07:45:12.914Z,90.18
2022-08-25T07:47:40.581Z,90.46
2022-08-25T07:50:12.277Z,90.67
2022-08-25T07:52:41.416Z,90.84
2022-08-25T07:55:11.042Z,90.28
2022-08-25T07:57:41.911Z,90.71
2022-08-25T08:00:13.602Z,90.14
2022-08-25T08:02:42.139Z,89.98
2022-08-25T08:05:12.265Z,89.45
2022-08-25T08:07:43.464Z,89.16
2022-08-25T08:10:48.198Z,88.36
2022-08-25T08:13:02.524Z,88.38
2022-08-25T08:15:30.317Z,89.01
2022-08-25T08:17:59.693Z,87.89
2022-08-25T08:20:28.726Z,87.47
2022-08-25T08:22:55.896Z,88.17
2022-08-25T08:25:27.497Z,88.19
2022-08-25T08:27:56.702Z,87.20
2022-08-25T08:30:26.165Z,86.75
2022-08-25T08:33:11.852Z,87.05
2022-08-25T08:35:43.948Z,85.77
2022-08-25T08:38:17.375Z,86.67
2022-08-25T08:41:40.173Z,84.58
2022-08-25T08:44:50.368Z,85.30
2022-08-25T08:48:02.954Z,85.41
2022-08-25T08:50:57.361Z,84.67
2022-08-25T08:53:58.148Z,84.34
2022-08-25T08:56:47.957Z,84.58
2022-08-25T08:59:30.781Z,85.54
2022-08-25T09:02:01.030Z,84.66
2022-08-25T09:05:16.805Z,83.70
2022-08-25T09:07:57.852Z,83.31
2022-08-25T09:10:40.328Z,82.97
2022-08-25T09:14:05.290Z,83.56
2022-08-25T09:17:34.482Z,83.38
2022-08-25T09:20:47.028Z,84.22
2022-08-25T09:24:25.038Z,84.29
2022-08-25T09:27:47.118Z,84.49
2022-08-25T09:30:21.137Z,84.27
2022-08-25T09:33:02.081Z,83.71
2022-08-25T09:35:34.723Z,82.88
2022-08-25T09:38:10.118Z,79.86
2022-08-25T09:40:49.246Z,81.23
2022-08-25T09:43:43.613Z,80.92
2022-08-25T09:46:29.748Z,79.51
2022-08-25T09:49:13.707Z,79.80
2022-08-25T09:51:42.947Z,77.66
2022-08-25T09:54:12.965Z,76.54
2022-08-25T09:57:01.842Z,76.98
2022-08-25T09:59:36.579Z,75.97
2022-08-25T10:02:25.769Z,75.48
2022-08-25T10:04:53.469Z,74.51
2022-08-25T10:07:36.184Z,74.14
2022-08-25T10:10:35.133Z,73.71
2022-08-25T10:13:12.158Z,73.59
2022-08-25T10:15:39.702Z,73.64
2022-08-25T10:18:29.435Z,71.97
2022-08-25T10:21:14.923Z,72.45
2022-08-25T10:23:53.459Z,70.11
2022-08-25T10:27:14.830Z,71.54
2022-08-25T10:30:57.094Z,69.77
2022-08-25T10:34:08.901Z,70.32
2022-08-25T10:37:10.920Z,71.18
2022-08-25T10:39:45.744Z,71.24
2022-08-25T10:42:43.465Z,70.11
2022-08-25T10:45:43.087Z,71.75
2022-08-25T10:49:19.578Z,70.43
2022-08-25T10:52:14.788Z,70.47
2022-08-25T10:55:01.782Z,70.83
2022-08-25T10:57:53.152Z,70.57
2022-08-25T11:00:31.752Z,69.07
2022-08-25T11:03:44.503Z,69.33
2022-08-25T11:06:54.829Z,69.84
2022-08-25T11:09:36.454Z,68.40
2022-08-25T11:12:15.646Z,67.91
2022-08-25T11:14:57.156Z,67.36
2022-08-25T11:17:42.903Z,66.10
2022-08-25T11:20:27.116Z,64.60
2022-08-25T11:23:32.370Z,64.93
2022-08-25T11:26:17.316Z,62.58
2022-08-25T11:28:52.543Z,62.09
2022-08-25T11:31:23.041Z,63.41
2022-08-25T11:33:51.685Z,64.44
2022-08-25T11:36:37.578Z,64.28
2022-08-25T11:39:34.661Z,64.36
2022-08-25T11:42:42.882Z,60.15
2022-08-25T11:45:54.504Z,59.56
2022-08-25T11:49:02.104Z,63.60
2022-08-25T11:51:49.094Z,63.33
2022-08-25T11:54:44.060Z,63.87
2022-08-25T11:57:27.763Z,64.78
2022-08-25T11:59:57.846Z,66.67
2022-08-25T12:02:37.526Z,64.04
2022-08-25T12:05:36.774Z,63.74
2022-08-25T12:08:25.418Z,64.20
2022-08-25T12:11:10.663Z,61.42
2022-08-25T12:13:49.113Z,59.86
2022-08-25T12:16:36.243Z,57.61
2022-08-25T12:19:35.621Z,59.68
2022-08-25T12:22:03.955Z,58.50
2022-08-25T12:24:47.931Z,58.62
2022-08-25T12:27:58.198Z,60.46
2022-08-25T12:30:53.734Z,61.57
2022-08-25T12:34:04.272Z,58.50
2022-08-25T12:36:33.992Z,57.58
2022-08-25T12:39:24.597Z,58.62
2022-08-25T12:42:04.192Z,57.54
2022-08-25T12:44:39.599Z,57.79
2022-08-25T12:47:19.523Z,56.14
2022-08-25T12:49:51.460Z,56.77
2022-08-25T12:52:28.134Z,57.78
2022-08-25T12:55:06.148Z,58.56
2022-08-25T12:57:57.594Z,59.50
2022-08-25T13:00:35.207Z,58.57
2022-08-25T13:03:26.099Z,58.12
2022-08-25T13:06:02.668Z,56.23
2022-08-25T13:09:18.878Z,57.64
2022-08-25T13:12:40.428Z,55.91
2022-08-25T13:15:24.870Z,54.88
2022-08-25T13:17:59.004Z,55.10
2022-08-25T13:20:29.244Z,52.61
2022-08-25T13:23:00.794Z,54.35
2022-08-25T13:25:32.449Z,53.44
2022-08-25T13:28:06.344Z,53.08
2022-08-25T13:30:37.074Z,51.79
2022-08-25T13:33:26.398Z,54.62
2022-08-25T13:36:16.574Z,53.50
2022-08-25T13:38:46.667Z,53.75
2022-08-25T13:41:29.228Z,53.35
2022-08-25T13:44:00.780Z,55.67
2022-08-25T13:46:30.125Z,57.03
2022-08-25T13:49:08.797Z,57.01
2022-08-25T13:51:39.091Z,56.82
2022-08-25T13:54:23.823Z,54.28
2022-08-25T13:56:52.443Z,52.20
2022-08-25T13:59:31.086Z,53.20
2022-08-25T14:01:59.834Z,52.65
2022-08-25T14:04:44.091Z,50.86
2022-08-25T14:07:22.318Z,52.24
2022-08-25T14:10:07.210Z,52.54
2022-08-25T14:12:47.663Z,51.14
2022-08-25T14:15:17.491Z,52.21
2022-08-25T14:18:06.837Z,54.53
2022-08-25T14:20:37.142Z,55.54
2022-08-25T14:23:16.310Z,55.25
2022-08-25T14:25:48.744Z,54.96
2022-08-25T14:28:25.458Z,56.37
2022-08-25T14:31:35.581Z,53.96
2022-08-25T14:34:16.329Z,53.66
2022-08-25T14:36:44.903Z,53.48
2022-08-25T14:39:12.650Z,55.17
2022-08-25T14:41:45.296Z,55.70
2022-08-25T14:44:18.493Z,53.30
2022-08-25T14:46:54.095Z,53.51
2022-08-25T14:49:33.625Z,51.01
2022-08-25T14:52:30.353Z,51.53
2022-08-25T14:54:57.613Z,51.91
2022-08-25T14:57:25.827Z,53.39
2022-08-25T14:59:53.586Z,51.39
2022-08-25T15:02:29.333Z,51.47
2022-08-25T15:05:02.179Z,50.61
2022-08-25T15:07:50.152Z,51.77
2022-08-25T15:10:17.915Z,51.32
2022-08-25T15:12:47.890Z,54.02
2022-08-25T15:15:15.361Z,54.85
2022-08-25T15:17:44.767Z,55.34
2022-08-25T15:20:12.534Z,55.56
2022-08-25T15:22:41.702Z,54.39
2022-08-25T15:25:08.947Z,54.36
2022-08-25T15:27:36.768Z,54.73
2022-08-25T15:30:05.498Z,55.46
2022-08-25T15:32:32.554Z,54.27
2022-08-25T15:35:00.658Z,53.75
2022-08-25T15:37:28.576Z,53.44
2022-08-25T15:39:55.992Z,54.27
2022-08-25T15:42:23.091Z,53.99
2022-08-25T15:44:53.274Z,54.76
2022-08-25T15:47:24.022Z,53.63
2022-08-25T15:50:01.564Z,54.22
2022-08-25T15:52:44.554Z,54.46
2022-08-25T15:55:16.376Z,54.29
2022-08-25T15:57:43.806Z,53.62
2022-08-25T16:00:13.729Z,53.93
2022-08-25T16:02:45.497Z,53.56
2022-08-25T16:05:13.672Z,53.56
2022-08-25T16:07:45.844Z,53.00
2022-08-25T16:10:13.599Z,53.05
2022-08-25T16:12:42.702Z,54.14
2022-08-25T16:15:12.233Z,54.59
2022-08-25T16:17:40.666Z,54.86
2022-08-25T16:20:13.633Z,55.29
2022-08-25T16:22:41.512Z,54.71
2022-08-25T16:25:10.638Z,54.54
2022-08-25T16:27:38.831Z,54.58
2022-08-25T16:30:17.520Z,54.77
2022-08-25T16:32:46.609Z,55.05
2022-08-25T16:35:14.225Z,54.94
2022-08-25T16:37:41.467Z,55.07
2022-08-25T16:40:14.715Z,55.04
2022-08-25T16:42:42.184Z,55.70
2022-08-25T16:45:10.072Z,54.54
2022-08-25T16:47:42.559Z,56.12
2022-08-25T16:50:11.061Z,56.51
2022-08-25T16:52:58.177Z,57.36
2022-08-25T16:55:28.479Z,57.17
2022-08-25T16:58:06.938Z,57.70
2022-08-25T17:00:38.740Z,57.18
2022-08-25T17:03:06.975Z,58.97
2022-08-25T17:05:42.185Z,57.29
2022-08-25T17:08:27.887Z,58.22
2022-08-25T17:11:17.665Z,57.71
2022-08-25T17:13:53.127Z,58.30
2022-08-25T17:16:27.739Z,59.47
2022-08-25T17:18:55.432Z,59.80
2022-08-25T17:21:26.751Z,60.45
2022-08-25T17:23:57.296Z,60.39
2022-08-25T17:26:28.106Z,59.59
2022-08-25T17:29:01.038Z,60.92
2022-08-25T17:31:29.982Z,61.34
2022-08-25T17:33:58.453Z,60.19
2022-08-25T17:36:27.153Z,60.37
2022-08-25T17:38:56.921Z,60.13
2022-08-25T17:41:24.992Z,61.06
2022-08-25T17:43:52.113Z,60.86
2022-08-25T17:46:19.199Z,61.46
2022-08-25T17:48:46.205Z,61.71
2022-08-25T17:51:13.356Z,61.85
2022-08-25T17:53:43.781Z,62.65
2022-08-25T17:56:17.327Z,63.24
2022-08-25T17:58:47.138Z,63.31
2022-08-25T18:01:22.592Z,64.43
2022-08-25T18:03:50.636Z,64.08
2022-08-25T18:06:18.960Z,63.08
2022-08-25T18:08:50.254Z,64.48
2022-08-25T18:11:23.557Z,64.70
2022-08-25T18:13:53.846Z,64.94
2022-08-25T18:16:22.992Z,64.52
2022-08-25T18:18:51.456Z,66.30
2022-08-25T18:21:22.555Z,65.45
2022-08-25T18:23:49.974Z,64.73
2022-08-25T18:26:21.958Z,65.46
2022-08-25T18:28:52.567Z,65.01
2022-08-25T18:31:19.824Z,67.14
2022-08-25T18:33:47.674Z,67.10
2022-08-25T18:36:20.436Z,67.14
2022-08-25T18:39:07.308Z,68.92
2022-08-25T18:41:41.119Z,69.05
2022-08-25T18:44:10.561Z,69.15
2022-08-25T18:46:39.323Z,67.90
2022-08-25T18:49:06.390Z,68.81
2022-08-25T18:51:33.487Z,69.14
2022-08-25T18:54:01.437Z,70.34
2022-08-25T18:56:29.136Z,70.10
2022-08-25T18:58:57.137Z,68.88
2022-08-25T19:01:24.616Z,70.60
2022-08-25T19:03:51.826Z,68.75
2022-08-25T19:06:20.194Z,70.35
2022-08-25T19:08:48.458Z,70.50
2022-08-25T19:11:17.511Z,71.28
2022-08-25T19:13:50.888Z,70.76
2022-08-25T19:16:41.396Z,69.87
2022-08-25T19:19:13.056Z,71.67
2022-08-25T19:21:43.745Z,71.57
2022-08-25T19:24:14.301Z,70.52
2022-08-25T19:26:43.445Z,72.86
2022-08-25T19:29:17.128Z,73.10
2022-08-25T19:31:47.534Z,74.08
2022-08-25T19:34:30.355Z,71.94
2022-08-25T19:37:02.419Z,73.00
2022-08-25T19:39:34.860Z,73.76
2022-08-25T19:42:03.177Z,72.59
2022-08-25T19:44:30.659Z,72.38
2022-08-25T19:46:58.037Z,73.74
2022-08-25T19:49:34.186Z,74.55
2022-08-25T19:52:10.384Z,73.37
2022-08-25T19:54:45.757Z,74.06
2022-08-25T19:57:27.704Z,73.39
2022-08-25T19:59:56.221Z,75.12
2022-08-25T20:02:29.506Z,74.65
2022-08-25T20:05:01.935Z,74.87
2022-08-25T20:07:31.841Z,74.03
2022-08-25T20:10:01.267Z,73.90
2022-08-25T20:12:29.356Z,75.31
2022-08-25T20:14:57.794Z,74.17
2022-08-25T20:17:26.071Z,73.75
2022-08-25T20:20:00.074Z,75.95
2022-08-25T20:22:32.117Z,74.89
2022-08-25T20:25:13.422Z,77.19
2022-08-25T20:27:53.813Z,75.89
2022-08-25T20:30:29.596Z,76.41
2022-08-25T20:32:58.119Z,77.45
2022-08-25T20:35:27.336Z,76.16
2022-08-25T20:37:58.973Z,76.83
2022-08-25T20:40:30.399Z,77.00
2022-08-25T20:43:03.236Z,74.47
2022-08-25T20:45:30.616Z,74.69
2022-08-25T20:47:57.691Z,75.72
2022-08-25T20:50:25.555Z,76.98
2022-08-25T20:52:58.295Z,75.86
2022-08-25T20:55:27.700Z,75.86
2022-08-25T20:57:55.102Z,75.14
2022-08-25T21:00:23.587Z,75.82
2022-08-25T21:02:52.849Z,76.58
2022-08-25T21:05:20.068Z,74.36
2022-08-25T21:07:47.085Z,74.68
2022-08-25T21:10:16.064Z,75.45
2022-08-25T21:12:44.949Z,76.45
2022-08-25T21:15:13.650Z,76.65
2022-08-25T21:17:50.522Z,75.62
2022-08-25T21:20:18.342Z,77.67
2022-08-25T21:22:45.427Z,76.63
2022-08-25T21:25:13.596Z,76.47
2022-08-25T21:27:40.613Z,77.92
2022-08-25T21:30:12.002Z,76.48
2022-08-25T21:32:39.011Z,77.69
2022-08-25T21:35:07.909Z,77.64
2022-08-25T21:37:35.153Z,78.47
2022-08-25T21:40:02.357Z,78.07
2022-08-25T21:42:32.432Z,79.46
2022-08-25T21:44:59.392Z,78.89
2022-08-25T21:47:26.401Z,78.07
2022-08-25T21:49:53.935Z,78.05
2022-08-25T21:52:21.135Z,78.83
2022-08-25T21:54:48.180Z,79.32
2022-08-25T21:57:17.869Z,79.72
2022-08-25T21:59:46.379Z,79.46
2022-08-25T22:02:14.050Z,80.21
2022-08-25T22:04:42.168Z,80.17
2022-08-25T22:07:10.952Z,80.99
2022-08-25T22:09:39.126Z,79.24
2022-08-25T22:12:06.939Z,80.30
2022-08-25T22:14:36.103Z,81.98
2022-08-25T22:17:03.586Z,80.68
2022-08-25T22:19:30.822Z,80.95
2022-08-25T22:22:00.810Z,81.07
2022-08-25T22:24:28.125Z,81.63
2022-08-25T22:26:56.392Z,81.82
2022-08-25T22:29:25.806Z,82.12
2022-08-25T22:32:00.980Z,82.04
2022-08-25T22:34:34.193Z,81.36
2022-08-25T22:37:03.794Z,80.51
2022-08-25T22:39:34.443Z,81.50
2022-08-25T22:42:03.616Z,80.95
2022-08-25T22:44:31.050Z,81.74
2022-08-25T22:46:58.211Z,81.96
2022-08-25T22:49:29.507Z,83.14
2022-08-25T22:51:57.184Z,81.90
2022-08-25T22:54:25.526Z,82.00
2022-08-25T22:56:53.338Z,81.44
2022-08-25T22:59:22.446Z,84.26
2022-08-25T23:01:52.325Z,83.45
2022-08-25T23:04:19.550Z,83.23
2022-08-25T23:06:47.422Z,83.81
2022-08-25T23:09:14.859Z,83.08
2022-08-25T23:11:42.514Z,83.74
2022-08-25T23:14:11.443Z,83.31
2022-08-25T23:16:41.974Z,83.53
2022-08-25T23:19:14.023Z,83.07
2022-08-25T23:22:01.824Z,83.40
2022-08-25T23:24:31.008Z,83.68
2022-08-25T23:27:04.286Z,84.29
2022-08-25T23:29:35.840Z,83.89
2022-08-25T23:32:04.531Z,83.10
2022-08-25T23:34:31.550Z,84.98
2022-08-25T23:37:01.250Z,85.82
2022-08-25T23:39:28.735Z,85.12
2022-08-25T23:41:58.018Z,85.48
2022-08-25T23:44:25.778Z,85.44
2022-08-25T23:46:53.744Z,86.07
2022-08-25T23:49:23.678Z,85.85
2022-08-25T23:51:52.992Z,84.75
2022-08-25T23:54:21.530Z,85.71
2022-08-25T23:56:52.391Z,85.85
2022-08-25T23:59:24.489Z,85.14
